Troy, NY

2:20 PM EDT on July 28, 2016 (GMT -0400)
| | Change Station

Elev -9999 ft 0.00 °N, 0.00 °E | Updated

Mostly Cloudy
Mostly Cloudy
84 °F
Feels Like 86 °F
N
6
Wind Variable Wind from West
Gusts mph

Today
High -- | Low -- °F
--% Chance of Precip.
Yesterday
High -- | Low -- °F
Precip. -- in
Pressure 29.86 in
Visibility 10.0 miles
Clouds Few 6000 ft
Few 7500 ft
Few 21000 ft
Overcast 26000 ft
Heat Index 86 °F
Dew Point 65 °F
Humidity 52%
Rainfall --
Snow Depth Not available.
5:42 AM 8:18 PM
Waning Crescent, 30% visible
METAR KALB 281751Z VRB04KT 10SM FEW060 FEW075 FEW210 OVC260 32/18 A2987 RMK AO2 SLP111 T03170178 10322 20222 58017
Pressure 29.86 in
Visibility 10.0 miles
Clouds Few 6000 ft
Few 7500 ft
Few 21000 ft
Overcast 26000 ft
Heat Index 86 °F
Dew Point 65 °F
Humidity 52%
Rainfall --
Snow Depth Not available.
5:42 AM 8:18 PM
Waning Crescent, 30% visible
METAR KALB 281751Z VRB04KT 10SM FEW060 FEW075 FEW210 OVC260 32/18 A2987 RMK AO2 SLP111 T03170178 10322 20222 58017

10-Day Weather Forecast

Almanac

Astronomy

Jul. 28, 2016 Rise Set
Actual Time
Civil Twilight
Nautical Twilight
Astronomical Twilight
Moon
Length of Visible Light
Length of Day
Tomorrow will be .
, % of the Moon is Illuminated

Today's Extremes

State Highs State Lows

Community

WunderPhotos

Upload Photos

1,928,174 photos uploaded!

WunderBlog® & News

Nearby

Air Quality

  Air Quality AQ Index Pollutant
Not available.

Snow Depth

Station Depth Elevation

Earthquake Activity

City Distance Mag. Time & Date
Minimum magnitude displayed is 2.5.

Coastal Water Temperatures

Place Temperature

Stations

Nearby Weather Stations

Station Location Temp. Windchill Dew Point Humidity Wind Precip. Elev Updated Type
                   

Watches & Warnings

There are currently no watches in effect.